createdAt,value
2018-09-11T00:00:13.760Z,16.80
2018-09-11T00:02:41.584Z,16.80
2018-09-11T00:05:09.459Z,16.80
2018-09-11T00:07:37.340Z,16.90
2018-09-11T00:10:05.277Z,16.80
2018-09-11T00:12:33.166Z,16.80
2018-09-11T00:15:01.109Z,16.90
2018-09-11T00:17:28.900Z,16.90
2018-09-11T00:19:56.747Z,16.80
2018-09-11T00:22:24.634Z,16.80
2018-09-11T00:24:52.468Z,16.80
2018-09-11T00:27:20.282Z,16.80
2018-09-11T00:29:48.148Z,16.80
2018-09-11T00:32:15.931Z,16.80
2018-09-11T00:34:43.844Z,16.80
2018-09-11T00:37:11.792Z,16.80
2018-09-11T00:39:39.606Z,16.80
2018-09-11T00:42:07.374Z,16.80
2018-09-11T00:44:35.174Z,16.80
2018-09-11T00:47:02.982Z,16.80
2018-09-11T00:49:30.798Z,16.80
2018-09-11T00:51:59.087Z,16.80
2018-09-11T00:54:26.856Z,16.80
2018-09-11T00:56:54.638Z,16.80
2018-09-11T00:59:22.820Z,16.80
2018-09-11T01:01:50.620Z,16.80
2018-09-11T01:04:18.433Z,16.80
2018-09-11T01:06:46.263Z,16.80
2018-09-11T01:09:14.050Z,16.80
2018-09-11T01:11:41.794Z,16.80
2018-09-11T01:14:09.832Z,16.80
2018-09-11T01:16:37.656Z,16.70
2018-09-11T01:19:05.448Z,16.80
2018-09-11T01:21:33.227Z,16.80
2018-09-11T01:24:00.982Z,16.80
2018-09-11T01:26:28.825Z,16.80
2018-09-11T01:28:56.652Z,16.80
2018-09-11T01:31:24.434Z,16.70
2018-09-11T01:33:52.240Z,16.70
2018-09-11T01:36:20.295Z,16.70
2018-09-11T01:38:48.080Z,16.70
2018-09-11T01:41:15.826Z,16.70
2018-09-11T01:43:44.009Z,16.60
2018-09-11T01:46:11.851Z,16.70
2018-09-11T01:48:39.721Z,16.70
2018-09-11T01:51:07.840Z,16.70
2018-09-11T01:53:35.725Z,16.50
2018-09-11T01:56:03.769Z,16.60
2018-09-11T01:58:31.685Z,16.60
2018-09-11T02:00:59.623Z,16.60
2018-09-11T02:03:27.557Z,16.60
2018-09-11T02:05:55.641Z,16.50
2018-09-11T02:08:23.537Z,16.60
2018-09-11T02:10:51.311Z,16.50
2018-09-11T02:13:19.131Z,16.50
2018-09-11T02:15:47.034Z,16.50
2018-09-11T02:18:14.789Z,16.50
2018-09-11T02:20:42.635Z,16.50
2018-09-11T02:23:10.457Z,16.50
2018-09-11T02:25:38.199Z,16.50
2018-09-11T02:28:06.101Z,16.50
2018-09-11T02:30:34.048Z,16.50
2018-09-11T02:33:01.831Z,16.50
2018-09-11T02:35:30.086Z,16.50
2018-09-11T02:37:57.889Z,16.50
2018-09-11T02:40:25.701Z,16.40
2018-09-11T02:42:53.901Z,16.40
2018-09-11T02:45:23.189Z,16.40
2018-09-11T02:47:51.931Z,16.40
2018-09-11T02:50:19.783Z,16.40
2018-09-11T02:52:47.629Z,16.40
2018-09-11T02:55:15.452Z,16.40
2018-09-11T02:57:43.306Z,16.40
2018-09-11T03:00:11.073Z,16.40
2018-09-11T03:02:38.879Z,16.40
2018-09-11T03:05:06.845Z,16.40
2018-09-11T03:07:34.825Z,16.40
2018-09-11T03:10:02.737Z,16.40
2018-09-11T03:12:30.734Z,16.40
2018-09-11T03:14:58.487Z,16.40
2018-09-11T03:17:26.265Z,16.30
2018-09-11T03:19:54.344Z,16.30
2018-09-11T03:22:22.114Z,16.30
2018-09-11T03:24:49.921Z,16.30
2018-09-11T03:27:17.751Z,16.30
2018-09-11T03:29:45.516Z,16.20
2018-09-11T03:32:13.535Z,16.20
2018-09-11T03:34:41.295Z,16.20
2018-09-11T03:37:09.151Z,16.20
2018-09-11T03:39:36.928Z,16.10
2018-09-11T03:42:05.147Z,16.10
2018-09-11T03:44:33.007Z,16.20
2018-09-11T03:47:00.747Z,16.10
2018-09-11T03:49:28.601Z,16.10
2018-09-11T03:51:56.381Z,16.10
2018-09-11T03:54:24.177Z,16.10
2018-09-11T03:56:52.319Z,16.10
2018-09-11T03:59:20.155Z,16.10
2018-09-11T04:01:47.943Z,16.20
2018-09-11T04:04:15.772Z,16.10
2018-09-11T04:06:43.622Z,16.10
2018-09-11T04:09:12.520Z,16.10
2018-09-11T04:11:40.953Z,16.10
2018-09-11T04:14:08.737Z,16.10
2018-09-11T04:16:36.627Z,16.10
2018-09-11T04:19:04.469Z,16.10
2018-09-11T04:21:32.349Z,16.10
2018-09-11T04:24:00.121Z,16.10
2018-09-11T04:26:28.181Z,16.10
2018-09-11T04:28:56.027Z,16.10
2018-09-11T04:31:23.850Z,16.10
2018-09-11T04:33:51.897Z,16.10
2018-09-11T04:36:19.750Z,16.10
2018-09-11T04:38:47.546Z,16.10
2018-09-11T04:41:15.477Z,16.10
2018-09-11T04:43:43.297Z,16.20
2018-09-11T04:46:11.656Z,16.20
2018-09-11T04:48:41.541Z,16.30
2018-09-11T04:51:09.395Z,16.30
2018-09-11T04:53:37.467Z,16.30
2018-09-11T04:56:05.664Z,16.40
2018-09-11T04:58:33.458Z,16.40
2018-09-11T05:01:01.355Z,16.40
2018-09-11T05:03:29.454Z,16.40
2018-09-11T05:05:57.368Z,16.40
2018-09-11T05:08:25.133Z,16.40
2018-09-11T05:10:53.960Z,16.30
2018-09-11T05:13:21.951Z,16.30
2018-09-11T05:15:50.167Z,16.30
2018-09-11T05:18:18.533Z,16.30
2018-09-11T05:20:46.325Z,16.20
2018-09-11T05:23:14.371Z,16.20
2018-09-11T05:25:42.170Z,16.20
2018-09-11T05:28:10.030Z,16.20
2018-09-11T05:30:37.849Z,16.20
2018-09-11T05:33:06.079Z,16.30
2018-09-11T05:35:33.923Z,16.30
2018-09-11T05:38:02.193Z,16.30
2018-09-11T05:40:30.232Z,16.40
2018-09-11T05:42:58.142Z,16.40
2018-09-11T05:45:26.271Z,16.40
2018-09-11T05:47:54.607Z,16.40
2018-09-11T05:50:22.530Z,16.40
2018-09-11T05:52:50.398Z,16.50
2018-09-11T05:55:18.603Z,16.50
2018-09-11T05:57:46.600Z,16.50
2018-09-11T06:00:14.491Z,16.50
2018-09-11T06:02:42.499Z,16.50
2018-09-11T06:05:10.462Z,16.50
2018-09-11T06:07:38.416Z,16.60
2018-09-11T06:10:06.339Z,16.60
2018-09-11T06:12:34.265Z,16.60
2018-09-11T06:15:02.162Z,16.60
2018-09-11T06:17:30.314Z,16.70
2018-09-11T06:19:58.182Z,16.70
2018-09-11T06:22:25.989Z,16.70
2018-09-11T06:24:54.205Z,16.80
2018-09-11T06:27:22.069Z,16.80
2018-09-11T06:29:49.926Z,16.90
2018-09-11T06:32:17.813Z,16.90
2018-09-11T06:34:45.734Z,17.00
2018-09-11T06:37:13.506Z,17.10
2018-09-11T06:39:41.700Z,17.20
2018-09-11T06:42:09.541Z,17.20
2018-09-11T06:44:37.472Z,17.30
2018-09-11T06:47:05.381Z,17.30
2018-09-11T06:49:33.077Z,17.40
2018-09-11T06:52:00.928Z,17.50
2018-09-11T06:54:29.056Z,17.50
2018-09-11T06:56:56.900Z,17.60
2018-09-11T06:59:24.718Z,17.60
2018-09-11T07:01:52.661Z,17.70
2018-09-11T07:04:20.539Z,17.80
2018-09-11T07:06:48.422Z,17.80
2018-09-11T07:09:16.766Z,17.90
2018-09-11T07:11:44.580Z,17.90
2018-09-11T07:14:12.419Z,18.00
2018-09-11T07:16:40.611Z,18.10
2018-09-11T07:19:08.496Z,18.10
2018-09-11T07:21:36.305Z,18.20
2018-09-11T07:24:04.081Z,18.20
2018-09-11T07:26:31.899Z,18.10
2018-09-11T07:28:59.727Z,18.20
2018-09-11T07:31:27.846Z,18.20
2018-09-11T07:33:55.681Z,18.30
2018-09-11T07:36:23.574Z,18.40
2018-09-11T07:38:51.678Z,18.50
2018-09-11T07:41:19.548Z,18.60
2018-09-11T07:43:47.395Z,18.60
2018-09-11T07:46:15.247Z,18.60
2018-09-11T07:48:43.040Z,18.80
2018-09-11T07:51:10.898Z,18.90
2018-09-11T07:53:39.083Z,19.00
2018-09-11T07:56:06.941Z,19.00
2018-09-11T07:58:34.793Z,19.00
2018-09-11T08:01:02.645Z,19.00
2018-09-11T08:03:30.467Z,19.10
2018-09-11T08:05:58.286Z,19.10
2018-09-11T08:08:26.260Z,19.20
2018-09-11T08:10:54.276Z,19.30
2018-09-11T08:13:22.176Z,19.40
2018-09-11T08:15:50.150Z,19.50
2018-09-11T08:18:18.000Z,19.60
2018-09-11T08:20:45.857Z,19.50
2018-09-11T08:23:13.671Z,19.60
2018-09-11T08:25:41.539Z,19.70
2018-09-11T08:28:09.392Z,19.90
2018-09-11T08:30:37.226Z,20.10
2018-09-11T08:33:05.364Z,20.10
2018-09-11T08:35:33.168Z,20.10
2018-09-11T08:38:00.958Z,20.20
2018-09-11T08:40:28.763Z,20.30
2018-09-11T08:42:56.698Z,20.30
2018-09-11T08:45:24.779Z,20.40
2018-09-11T08:47:52.605Z,20.60
2018-09-11T08:50:20.518Z,20.80
2018-09-11T08:52:48.750Z,20.80
2018-09-11T08:55:16.506Z,21.00
2018-09-11T08:57:44.295Z,21.00
2018-09-11T09:00:12.340Z,21.00
2018-09-11T09:02:40.194Z,21.00
2018-09-11T09:05:08.030Z,21.10
2018-09-11T09:07:36.000Z,21.30
2018-09-11T09:10:03.894Z,21.50
2018-09-11T09:12:31.665Z,21.60
2018-09-11T09:14:59.808Z,21.70
2018-09-11T09:17:27.639Z,21.80
2018-09-11T09:19:55.549Z,21.90
2018-09-11T09:22:23.489Z,22.00
2018-09-11T09:24:51.455Z,22.00
2018-09-11T09:27:19.375Z,22.20
2018-09-11T09:29:47.404Z,22.30
2018-09-11T09:32:15.398Z,22.40
2018-09-11T09:34:43.249Z,22.50
2018-09-11T09:37:11.894Z,22.50
2018-09-11T09:39:40.022Z,22.50
2018-09-11T09:42:07.805Z,22.50
2018-09-11T09:44:35.796Z,22.50
2018-09-11T09:47:03.706Z,22.60
2018-09-11T09:49:44.506Z,22.70
2018-09-11T09:52:12.439Z,22.60
2018-09-11T09:54:47.567Z,22.60
2018-09-11T09:57:37.243Z,22.60
2018-09-11T10:02:35.120Z,22.80
2018-09-11T10:05:09.628Z,23.00
2018-09-11T10:07:46.885Z,23.00
2018-09-11T10:10:21.671Z,23.20
2018-09-11T10:13:00.364Z,23.20
2018-09-11T10:15:32.247Z,23.40
2018-09-11T10:18:04.263Z,23.50
2018-09-11T10:20:39.514Z,23.70
2018-09-11T10:23:07.317Z,23.70
2018-09-11T10:25:50.724Z,23.70
2018-09-11T10:28:18.533Z,23.80
2018-09-11T10:30:47.184Z,24.00
2018-09-11T10:33:16.144Z,23.90
2018-09-11T10:39:10.770Z,23.80
2018-09-11T10:41:47.073Z,23.90
2018-09-11T10:44:29.378Z,24.10
2018-09-11T10:47:13.577Z,24.30
2018-09-11T10:49:48.168Z,24.30
2018-09-11T10:52:34.878Z,24.30
2018-09-11T10:58:13.375Z,24.50
2018-09-11T11:00:41.264Z,24.60
2018-09-11T11:08:58.954Z,25.00
2018-09-11T11:11:26.803Z,25.00
2018-09-11T11:13:54.618Z,25.00
2018-09-11T11:16:22.517Z,24.90
2018-09-11T11:18:50.332Z,24.80
2018-09-11T11:21:18.147Z,25.00
2018-09-11T11:23:46.076Z,24.90
2018-09-11T11:26:13.900Z,25.10
2018-09-11T11:28:41.707Z,25.30
2018-09-11T11:31:09.514Z,25.30
2018-09-11T11:33:37.424Z,25.40
2018-09-11T11:36:05.281Z,25.70
2018-09-11T11:38:39.208Z,25.50
2018-09-11T11:41:07.053Z,25.50
2018-09-11T11:43:34.888Z,25.60
2018-09-11T11:46:02.805Z,25.80
2018-09-11T11:48:30.675Z,26.00
2018-09-11T11:50:58.595Z,26.00
2018-09-11T11:53:26.436Z,26.00
2018-09-11T11:55:54.310Z,26.00
2018-09-11T11:58:22.264Z,25.80
2018-09-11T12:00:50.195Z,26.10
2018-09-11T12:03:18.059Z,26.00
2018-09-11T12:05:46.010Z,26.00
2018-09-11T12:08:13.973Z,26.20
2018-09-11T12:10:42.031Z,26.50
2018-09-11T12:13:09.885Z,26.30
2018-09-11T12:15:37.725Z,26.30
2018-09-11T12:18:05.641Z,26.40
2018-09-11T12:20:33.533Z,26.50
2018-09-11T12:23:01.332Z,26.50
2018-09-11T12:25:29.233Z,26.40
2018-09-11T12:27:57.053Z,26.50
2018-09-11T12:30:24.898Z,26.50
2018-09-11T12:32:52.738Z,26.50
2018-09-11T12:35:20.550Z,26.40
2018-09-11T12:37:48.429Z,26.40
2018-09-11T12:40:16.214Z,26.40
2018-09-11T12:42:44.024Z,26.50
2018-09-11T12:45:11.913Z,26.40
2018-09-11T12:47:40.085Z,26.40
2018-09-11T12:50:07.709Z,26.60
2018-09-11T12:52:35.592Z,26.60
2018-09-11T12:55:03.441Z,26.80
2018-09-11T12:57:31.394Z,26.90
2018-09-11T12:59:59.419Z,27.00
2018-09-11T13:02:27.390Z,27.00
2018-09-11T13:04:55.209Z,27.20
2018-09-11T13:07:23.054Z,27.10
2018-09-11T13:09:50.846Z,27.20
2018-09-11T13:12:18.690Z,27.20
2018-09-11T13:14:46.678Z,27.60
2018-09-11T13:17:14.593Z,27.40
2018-09-11T13:19:42.496Z,27.30
2018-09-11T13:22:10.542Z,27.10
2018-09-11T13:24:38.429Z,27.20
2018-09-11T13:27:06.305Z,27.30
2018-09-11T13:29:34.182Z,27.30
2018-09-11T13:32:02.001Z,27.30
2018-09-11T13:34:29.805Z,27.20
2018-09-11T13:36:57.650Z,27.10
2018-09-11T13:39:25.470Z,27.10
2018-09-11T13:41:53.250Z,27.20
2018-09-11T13:44:21.068Z,27.30
2018-09-11T13:46:48.933Z,27.40
2018-09-11T13:49:16.709Z,27.30
2018-09-11T13:51:44.563Z,27.30
2018-09-11T13:54:12.405Z,27.20
2018-09-11T13:56:40.260Z,27.30
2018-09-11T13:59:08.161Z,27.50
2018-09-11T14:01:36.351Z,27.70
2018-09-11T14:04:04.818Z,27.90
2018-09-11T14:06:33.122Z,27.70
2018-09-11T14:09:01.555Z,27.70
2018-09-11T14:11:29.916Z,27.70
2018-09-11T14:13:58.346Z,27.60
2018-09-11T14:16:26.858Z,27.50
2018-09-11T14:18:55.503Z,27.70
2018-09-11T14:21:23.810Z,27.50
2018-09-11T14:23:51.991Z,27.40
2018-09-11T14:26:20.307Z,27.40
2018-09-11T14:28:48.583Z,27.50
2018-09-11T14:31:16.891Z,27.50
2018-09-11T14:33:45.337Z,27.50
2018-09-11T14:36:13.742Z,27.40
2018-09-11T14:38:42.282Z,27.30
2018-09-11T14:41:10.901Z,27.40
2018-09-11T14:43:39.265Z,27.60
2018-09-11T14:46:07.780Z,27.40
2018-09-11T14:48:36.400Z,27.50
2018-09-11T14:51:04.895Z,27.30
2018-09-11T14:53:33.321Z,27.40
2018-09-11T14:56:01.797Z,27.30
2018-09-11T14:58:30.076Z,27.30
2018-09-11T15:00:58.110Z,27.40
2018-09-11T15:03:26.473Z,27.40
2018-09-11T15:05:54.683Z,27.50
2018-09-11T15:08:22.795Z,27.50
2018-09-11T15:10:51.043Z,27.50
2018-09-11T15:13:19.427Z,27.70
2018-09-11T15:15:47.821Z,27.60
2018-09-11T15:18:15.979Z,27.70
2018-09-11T15:20:44.317Z,27.60
2018-09-11T15:23:12.732Z,27.60
2018-09-11T15:25:41.032Z,27.50
2018-09-11T15:28:09.410Z,27.50
2018-09-11T15:30:37.646Z,27.40
2018-09-11T15:33:06.116Z,27.30
2018-09-11T15:35:34.429Z,27.30
2018-09-11T15:38:02.515Z,27.40
2018-09-11T15:40:30.794Z,27.50
2018-09-11T15:42:59.471Z,27.40
2018-09-11T15:45:27.753Z,27.40
2018-09-11T15:47:56.206Z,27.40
2018-09-11T15:50:24.486Z,27.20
2018-09-11T15:52:52.780Z,27.20
2018-09-11T15:55:21.013Z,27.10
2018-09-11T15:57:50.282Z,27.00
2018-09-11T16:00:18.404Z,27.00
2018-09-11T16:02:46.958Z,27.10
2018-09-11T16:05:15.303Z,27.10
2018-09-11T16:07:43.623Z,27.00
2018-09-11T16:10:11.885Z,26.80
2018-09-11T16:12:40.169Z,26.90
2018-09-11T16:15:08.600Z,26.90
2018-09-11T16:17:37.123Z,26.90
2018-09-11T16:20:05.667Z,26.90
2018-09-11T16:22:33.912Z,26.80
2018-09-11T16:25:02.264Z,26.70
2018-09-11T16:27:30.597Z,26.60
2018-09-11T16:29:58.890Z,26.50
2018-09-11T16:32:27.362Z,26.50
2018-09-11T16:34:55.939Z,26.40
2018-09-11T16:37:24.719Z,26.30
2018-09-11T16:39:52.992Z,26.20
2018-09-11T16:42:21.431Z,26.10
2018-09-11T16:44:49.835Z,26.00
2018-09-11T16:47:18.594Z,26.00
2018-09-11T16:49:47.004Z,26.00
2018-09-11T16:52:15.673Z,25.80
2018-09-11T16:54:44.175Z,25.70
2018-09-11T16:57:12.493Z,25.50
2018-09-11T16:59:40.981Z,25.50
2018-09-11T17:02:09.504Z,25.40
2018-09-11T17:04:37.859Z,25.30
2018-09-11T17:07:06.316Z,25.20
2018-09-11T17:09:34.754Z,25.10
2018-09-11T17:12:03.332Z,25.00
2018-09-11T17:14:31.579Z,25.00
2018-09-11T17:17:00.187Z,24.80
2018-09-11T17:19:28.617Z,24.80
2018-09-11T17:21:57.416Z,24.70
2018-09-11T17:24:25.815Z,24.60
2018-09-11T17:26:54.290Z,24.60
2018-09-11T17:29:23.004Z,24.50
2018-09-11T17:31:51.302Z,24.40
2018-09-11T17:34:19.766Z,24.30
2018-09-11T17:36:48.286Z,24.20
2018-09-11T17:39:17.889Z,24.20
2018-09-11T17:41:46.301Z,24.10
2018-09-11T17:44:15.027Z,24.00
2018-09-11T17:46:43.491Z,23.90
2018-09-11T17:49:11.996Z,23.90
2018-09-11T17:51:40.275Z,23.70
2018-09-11T17:54:08.788Z,23.70
2018-09-11T17:56:37.188Z,23.60
2018-09-11T17:59:05.291Z,23.50
2018-09-11T18:01:33.847Z,23.40
2018-09-11T18:04:02.524Z,23.30
2018-09-11T18:06:31.050Z,23.30
2018-09-11T18:09:00.461Z,23.10
2018-09-11T18:11:28.604Z,23.10
2018-09-11T18:13:56.995Z,23.00
2018-09-11T18:16:25.520Z,22.90
2018-09-11T18:18:53.919Z,22.80
2018-09-11T18:21:21.953Z,22.80
2018-09-11T18:23:50.264Z,22.70
2018-09-11T18:26:18.637Z,22.60
2018-09-11T18:28:46.712Z,22.50
2018-09-11T18:31:16.784Z,22.50
2018-09-11T18:33:44.925Z,22.40
2018-09-11T18:36:13.180Z,22.30
2018-09-11T18:38:41.814Z,22.30
2018-09-11T18:41:10.152Z,22.20
2018-09-11T18:43:38.601Z,22.10
2018-09-11T18:46:07.304Z,22.00
2018-09-11T18:48:35.693Z,22.00
2018-09-11T18:51:04.187Z,21.90
2018-09-11T18:53:32.853Z,21.90
2018-09-11T18:56:01.579Z,21.90
2018-09-11T18:58:30.302Z,21.90
2018-09-11T19:00:58.991Z,21.90
2018-09-11T19:03:27.814Z,21.80
2018-09-11T19:05:56.613Z,21.80
2018-09-11T19:08:25.638Z,21.70
2018-09-11T19:10:54.185Z,21.70
2018-09-11T19:13:23.069Z,21.60
2018-09-11T19:15:51.849Z,21.60
2018-09-11T19:18:20.368Z,21.60
2018-09-11T19:20:49.192Z,21.60
2018-09-11T19:23:17.729Z,21.50
2018-09-11T19:25:46.420Z,21.50
2018-09-11T19:28:15.101Z,21.40
2018-09-11T19:30:43.816Z,21.40
2018-09-11T19:33:12.315Z,21.30
2018-09-11T19:35:40.960Z,21.30
2018-09-11T19:38:09.438Z,21.20
2018-09-11T19:40:37.749Z,21.20
2018-09-11T19:43:06.449Z,21.10
2018-09-11T19:45:35.210Z,21.10
2018-09-11T19:48:03.986Z,21.00
2018-09-11T19:50:32.490Z,20.90
2018-09-11T19:53:01.145Z,20.80
2018-09-11T19:55:29.805Z,20.80
2018-09-11T19:57:58.303Z,20.80
2018-09-11T20:00:26.825Z,20.70
2018-09-11T20:02:55.276Z,20.60
2018-09-11T20:05:23.647Z,20.50
2018-09-11T20:07:51.972Z,20.40
2018-09-11T20:10:20.440Z,20.30
2018-09-11T20:12:48.648Z,20.20
2018-09-11T20:15:17.164Z,20.20
2018-09-11T20:17:45.742Z,20.10
2018-09-11T20:20:14.489Z,20.00
2018-09-11T20:22:42.946Z,19.80
2018-09-11T20:25:11.777Z,19.80
2018-09-11T20:27:40.481Z,19.80
2018-09-11T20:30:09.292Z,19.70
2018-09-11T20:32:38.285Z,19.70
2018-09-11T20:35:07.158Z,19.60
2018-09-11T20:37:36.147Z,19.50
2018-09-11T20:40:05.167Z,19.50
2018-09-11T20:42:34.156Z,19.50
2018-09-11T20:45:03.030Z,19.60
2018-09-11T20:47:31.944Z,19.50
2018-09-11T20:50:00.926Z,19.50
2018-09-11T20:52:29.627Z,19.50
2018-09-11T20:54:58.422Z,19.50
2018-09-11T20:57:27.174Z,19.50
2018-09-11T20:59:55.899Z,19.50
2018-09-11T21:02:24.463Z,19.50
2018-09-11T21:04:52.973Z,19.50
2018-09-11T21:07:21.857Z,19.60
2018-09-11T21:09:50.600Z,19.60
2018-09-11T21:12:19.392Z,19.50
2018-09-11T21:14:48.279Z,19.50
2018-09-11T21:17:16.743Z,19.50
2018-09-11T21:19:44.955Z,19.50
2018-09-11T21:22:13.341Z,19.40
2018-09-11T21:24:41.818Z,19.40
2018-09-11T21:27:10.355Z,19.30
2018-09-11T21:29:38.938Z,19.20
2018-09-11T21:32:07.710Z,19.20
2018-09-11T21:34:36.625Z,19.10
2018-09-11T21:37:05.398Z,19.10
2018-09-11T21:39:34.335Z,19.20
2018-09-11T21:42:03.005Z,19.20
2018-09-11T21:44:31.714Z,19.10
2018-09-11T21:47:00.346Z,19.10
2018-09-11T21:49:29.209Z,19.10
2018-09-11T21:51:58.095Z,19.10
2018-09-11T21:54:26.992Z,19.10
2018-09-11T21:56:55.585Z,19.00
2018-09-11T21:59:24.229Z,19.00
2018-09-11T22:01:53.699Z,18.90
2018-09-11T22:04:22.974Z,18.90
2018-09-11T22:06:51.642Z,18.90
2018-09-11T22:09:20.370Z,18.90
2018-09-11T22:14:42.051Z,18.80
2018-09-11T22:17:10.542Z,18.80
2018-09-11T22:19:39.109Z,18.80
2018-09-11T22:22:07.502Z,18.80
2018-09-11T22:24:35.939Z,18.80
2018-09-11T22:27:04.402Z,18.90
2018-09-11T22:29:33.118Z,18.90
2018-09-11T22:32:01.550Z,18.90
2018-09-11T22:34:29.673Z,18.80
2018-09-11T22:36:57.950Z,18.70
2018-09-11T22:39:26.560Z,18.70
2018-09-11T22:41:55.166Z,18.70
2018-09-11T22:44:23.662Z,18.70
2018-09-11T22:46:52.288Z,18.70
2018-09-11T22:49:20.811Z,18.60
2018-09-11T22:51:49.367Z,18.50
2018-09-11T22:54:18.094Z,18.50
2018-09-11T22:56:46.534Z,18.40
2018-09-11T22:59:15.277Z,18.40
2018-09-11T23:01:44.054Z,18.40
2018-09-11T23:04:12.347Z,18.50
2018-09-11T23:06:40.969Z,18.50
2018-09-11T23:09:10.238Z,18.60
2018-09-11T23:11:38.944Z,18.70
2018-09-11T23:14:07.868Z,18.80
2018-09-11T23:16:36.580Z,18.80
2018-09-11T23:19:05.188Z,18.90
2018-09-11T23:21:34.043Z,18.80
2018-09-11T23:24:02.580Z,18.80
2018-09-11T23:26:31.265Z,18.70
2018-09-11T23:29:00.250Z,18.70
2018-09-11T23:31:29.241Z,18.60
2018-09-11T23:33:57.592Z,18.60
2018-09-11T23:36:26.236Z,18.50
2018-09-11T23:38:54.902Z,18.50
2018-09-11T23:41:23.680Z,18.50
2018-09-11T23:43:52.190Z,18.50
2018-09-11T23:46:20.654Z,18.40
2018-09-11T23:48:49.155Z,18.40
2018-09-11T23:51:17.667Z,18.40
2018-09-11T23:53:46.250Z,18.40
2018-09-11T23:56:14.732Z,18.30
2018-09-11T23:58:43.552Z,18.30
